Time;durP1;ratioP1;P1;durP2;ratioP2;P2;SDS_P1;SDS_P2;PMS_P1;PMS_P2;Temp;Humidity;BMP_temperature;BMP_pressure;BME280_temperature;BME280_humidity;BME280_pressure;Samples;Min_cycle;Max_cycle;Signal;HPM_P1;HPM_P2
2023/03/05 00:00:48;;;;;;;8.02;2.03;;;;;;;4.11;100.00;101704.81;4932708;29;20408;-82
2023/03/05 00:03:15;;;;;;;6.75;1.90;;;;;;;4.54;100.00;101785.34;4935258;28;20052;-82
2023/03/05 00:05:42;;;;;;;5.88;1.80;;;;;;;4.09;100.00;101694.44;4933757;29;20051;-82
2023/03/05 00:08:09;;;;;;;7.78;2.17;;;;;;;4.38;100.00;101748.13;4932256;29;20106;-82
2023/03/05 00:10:36;;;;;;;4.53;1.80;;;;;;;4.08;100.00;101702.19;4925270;29;20473;-82
2023/03/05 00:13:02;;;;;;;9.70;1.90;;;;;;;4.23;100.00;101722.13;4925999;29;20044;-81
2023/03/05 00:15:29;;;;;;;5.35;1.63;;;;;;;4.38;100.00;101740.34;4931289;29;20097;-81
2023/03/05 00:17:56;;;;;;;4.85;1.67;;;;;;;4.28;100.00;101723.88;4933180;29;20048;-81
2023/03/05 00:20:22;;;;;;;5.65;1.70;;;;;;;4.11;100.00;101678.88;4930260;29;20059;-81
2023/03/05 00:22:49;;;;;;;10.43;2.08;;;;;;;4.19;100.00;101714.31;4932344;29;20547;-81
2023/03/05 00:25:16;;;;;;;7.30;2.17;;;;;;;4.24;100.00;101700.53;4933521;29;20055;-81
2023/03/05 00:27:43;;;;;;;5.68;1.63;;;;;;;4.10;100.00;101687.50;4932119;29;20051;-81
2023/03/05 00:30:10;;;;;;;8.27;1.80;;;;;;;4.50;100.00;101744.72;4929338;29;20379;-81
2023/03/05 00:32:37;;;;;;;8.00;1.75;;;;;;;4.16;100.00;101677.16;4931778;29;20051;-82
2023/03/05 00:35:04;;;;;;;6.60;1.85;;;;;;;4.58;100.00;101750.78;4939547;29;20059;-82
2023/03/05 00:37:31;;;;;;;3.78;1.40;;;;;;;4.48;100.00;101729.16;4932215;28;20044;-82
2023/03/05 00:39:58;;;;;;;5.05;1.65;;;;;;;4.13;100.00;101677.16;4932333;29;20051;-82
2023/03/05 00:42:25;;;;;;;5.75;1.63;;;;;;;4.47;100.00;101718.75;4947747;29;20408;-82
2023/03/05 00:44:51;;;;;;;6.15;1.55;;;;;;;4.15;100.00;101667.66;4932738;29;20445;-82
2023/03/05 00:47:18;;;;;;;4.65;1.50;;;;;;;4.43;100.00;101694.56;4933063;29;20052;-82
2023/03/05 00:49:45;;;;;;;6.10;2.03;;;;;;;4.44;100.00;101690.22;4931201;29;20052;-82
2023/03/05 00:52:11;;;;;;;3.20;1.30;;;;;;;4.30;100.00;101669.44;4929857;29;20461;-82
2023/03/05 00:54:38;;;;;;;5.32;1.60;;;;;;;4.41;100.00;101672.06;4919929;29;20043;-81
2023/03/05 00:57:05;;;;;;;4.18;1.48;;;;;;;4.60;100.00;101689.38;4931836;29;20126;-82
2023/03/05 00:59:31;;;;;;;5.88;1.60;;;;;;;4.33;100.00;101653.88;4930921;28;20105;-81
2023/03/05 01:01:58;;;;;;;3.35;1.30;;;;;;;4.31;100.00;101653.88;4920265;29;20448;-82
2023/03/05 01:04:25;;;;;;;3.65;1.40;;;;;;;4.40;100.00;101667.75;4933546;29;20061;-81
2023/03/05 01:06:52;;;;;;;4.00;1.48;;;;;;;4.36;100.00;101667.72;4931658;29;20401;-81
2023/03/05 01:09:19;;;;;;;3.40;1.48;;;;;;;4.27;100.00;101646.09;4931954;29;20056;-81
2023/03/05 01:11:45;;;;;;;5.00;1.67;;;;;;;4.14;100.00;101621.84;4919254;28;20048;-81
2023/03/05 01:14:13;;;;;;;3.63;1.30;;;;;;;4.63;100.00;101689.41;4930800;29;20056;-81
2023/03/05 01:16:40;;;;;;;4.13;1.42;;;;;;;4.35;100.00;101647.84;4942208;28;20466;-81
2023/03/05 01:19:06;;;;;;;3.35;1.30;;;;;;;4.20;100.00;101616.69;4935513;29;20063;-81
2023/03/05 01:21:34;;;;;;;6.40;1.60;;;;;;;4.47;100.00;101643.56;4929791;29;20121;-81
2023/03/05 01:24:02;;;;;;;3.78;1.20;;;;;;;4.41;100.00;101636.63;4931549;28;20056;-81
2023/03/05 01:26:29;;;;;;;2.03;1.13;;;;;;;4.51;100.00;101627.13;4932212;29;20143;-82
2023/03/05 01:28:56;;;;;;;3.47;1.20;;;;;;;4.69;100.00;101657.41;4931275;29;20055;-82
2023/03/05 01:31:23;;;;;;;3.42;1.30;;;;;;;4.57;100.00;101629.75;4927282;29;20051;-82
2023/03/05 01:33:53;;;;;;;2.15;1.10;;;;;;;4.66;100.00;101631.50;4932443;29;20564;-83
2023/03/05 01:36:23;;;;;;;2.58;1.20;;;;;;;4.58;100.00;101623.69;4930910;29;20051;-82
2023/03/05 01:38:51;;;;;;;2.38;1.10;;;;;;;4.77;100.00;101657.44;4932457;29;20060;-82
2023/03/05 01:41:19;;;;;;;2.08;1.10;;;;;;;4.47;100.00;101608.09;4939645;28;20394;-82
2023/03/05 01:43:48;;;;;;;2.03;1.00;;;;;;;4.73;100.00;101644.47;4932224;28;20109;-82
2023/03/05 01:46:27;;;;;;;6.45;1.20;;;;;;;4.67;100.00;101635.81;4932036;29;20078;-82
2023/03/05 01:48:53;;;;;;;4.63;1.40;;;;;;;4.59;100.00;101643.59;4979250;28;20143;-82
2023/03/05 01:51:24;;;;;;;1.65;1.10;;;;;;;4.57;100.00;101628.00;4930741;29;20052;-83
2023/03/05 01:53:52;;;;;;;2.88;1.20;;;;;;;4.39;100.00;101609.81;4932719;29;20060;-83
2023/03/05 01:56:19;;;;;;;4.32;1.23;;;;;;;4.13;100.00;101550.16;4931682;29;20064;-83
2023/03/05 01:58:46;;;;;;;5.22;1.30;;;;;;;4.28;100.00;101567.44;4930067;28;20077;-83
2023/03/05 02:01:13;;;;;;;3.65;1.33;;;;;;;4.27;100.00;101561.41;4922054;28;20760;-84
2023/03/05 02:03:41;;;;;;;3.10;1.20;;;;;;;4.37;100.00;101572.66;4937375;29;20043;-82
2023/03/05 02:06:08;;;;;;;4.07;1.42;;;;;;;4.45;100.00;101596.00;4934206;29;20390;-83
2023/03/05 02:08:35;;;;;;;4.50;1.60;;;;;;;4.07;100.00;101551.00;4935257;29;20055;-83
2023/03/05 02:11:02;;;;;;;7.07;1.65;;;;;;;4.10;100.00;101548.41;4924318;29;20067;-82
2023/03/05 02:13:32;;;;;;;2.95;1.25;;;;;;;4.31;100.00;101568.31;4932648;29;20056;-83
2023/03/05 02:16:01;;;;;;;3.83;1.40;;;;;;;4.16;100.00;101558.81;4934291;29;20455;-82
2023/03/05 02:18:27;;;;;;;5.25;1.52;;;;;;;4.14;100.00;101568.31;4936244;29;20051;-82
2023/03/05 02:20:54;;;;;;;3.50;1.27;;;;;;;4.42;100.00;101580.44;4926496;28;20397;-82
2023/03/05 02:23:24;;;;;;;3.92;1.40;;;;;;;4.23;100.00;101548.44;4951643;29;20535;-83
2023/03/05 02:25:51;;;;;;;3.53;1.30;;;;;;;3.99;100.00;101516.44;4933225;29;20052;-82
2023/03/05 02:28:31;;;;;;;6.47;1.30;;;;;;;4.32;100.00;101559.69;4934464;29;20050;-83
2023/03/05 02:30:57;;;;;;;3.33;1.30;;;;;;;4.18;100.00;101532.88;4924709;29;20052;-83
2023/03/05 02:33:24;;;;;;;4.13;1.30;;;;;;;4.00;100.00;101492.22;4946084;29;20077;-83
2023/03/05 02:35:52;;;;;;;6.40;2.45;;;;;;;3.93;100.00;101493.09;4945027;29;20112;-83
2023/03/05 02:38:20;;;;;;;2.78;1.10;;;;;;;3.97;100.00;101485.31;4934564;29;20052;-83
2023/03/05 02:40:47;;;;;;;3.80;1.30;;;;;;;4.21;100.00;101513.88;4925829;29;20791;-83
2023/03/05 02:43:13;;;;;;;2.40;1.20;;;;;;;3.90;100.00;101459.41;4932619;28;20400;-83
2023/03/05 02:45:40;;;;;;;4.57;1.58;;;;;;;3.73;100.00;101446.41;4981703;28;20475;-83
2023/03/05 02:48:07;;;;;;;3.70;1.42;;;;;;;3.78;100.00;101455.06;4957065;28;20051;-83
2023/03/05 02:50:35;;;;;;;4.97;1.48;;;;;;;3.76;100.00;101468.00;4926554;29;20413;-82
2023/03/05 02:53:02;;;;;;;4.00;1.40;;;;;;;3.81;100.00;101460.25;4941170;28;20126;-83
2023/03/05 02:55:29;;;;;;;4.78;1.58;;;;;;;3.71;100.00;101453.31;4935379;28;20058;-83
2023/03/05 02:57:55;;;;;;;4.15;1.33;;;;;;;3.70;100.00;101459.34;4933517;29;20520;-83
2023/03/05 03:00:22;;;;;;;4.35;2.03;;;;;;;3.78;100.00;101458.50;4930653;29;20052;-83
2023/03/05 03:02:49;;;;;;;5.05;2.33;;;;;;;3.97;100.00;101485.31;4934475;29;20083;-83
2023/03/05 03:05:16;;;;;;;3.88;1.38;;;;;;;3.64;100.00;101426.53;4934608;28;20056;-83
2023/03/05 03:07:43;;;;;;;3.10;1.55;;;;;;;3.89;100.00;101460.28;4934932;29;20062;-83
2023/03/05 03:10:10;;;;;;;2.85;1.77;;;;;;;3.72;100.00;101437.78;4939600;29;20056;-83
2023/03/05 03:12:38;;;;;;;4.07;1.27;;;;;;;3.68;100.00;101417.06;4933714;29;20048;-82
2023/03/05 03:15:07;;;;;;;5.85;2.30;;;;;;;3.65;100.00;101412.75;4955412;28;20049;-83
2023/03/05 03:17:35;;;;;;;3.28;1.20;;;;;;;3.85;100.00;101435.22;4935904;28;20048;-83
2023/03/05 03:20:05;;;;;;;5.00;1.40;;;;;;;4.04;100.00;101456.81;4930336;29;20063;-83
2023/03/05 03:22:32;;;;;;;3.88;1.23;;;;;;;3.72;100.00;101409.31;4932719;29;20047;-83
2023/03/05 03:24:59;;;;;;;5.07;1.42;;;;;;;3.66;100.00;101388.56;4938826;29;20052;-83
2023/03/05 03:27:26;;;;;;;2.85;1.10;;;;;;;3.92;100.00;101419.69;4935228;28;20052;-83
2023/03/05 03:29:53;;;;;;;3.50;1.17;;;;;;;3.86;100.00;101417.09;4931848;29;20109;-83
2023/03/05 03:32:19;;;;;;;5.40;1.30;;;;;;;3.69;100.00;101377.34;4927588;29;20060;-83
2023/03/05 03:34:47;;;;;;;4.07;1.40;;;;;;;3.57;100.00;101353.16;4943987;29;20125;-83
2023/03/05 03:37:14;;;;;;;3.00;1.20;;;;;;;3.90;100.00;101407.59;4933808;28;20058;-83
2023/03/05 03:39:40;;;;;;;3.92;1.60;;;;;;;3.94;100.00;101407.59;4933609;29;20052;-83
2023/03/05 03:42:07;;;;;;;2.58;1.10;;;;;;;3.77;100.00;101370.44;4922982;29;20059;-83
2023/03/05 03:44:34;;;;;;;3.17;1.30;;;;;;;3.71;100.00;101354.91;4933800;28;20060;-83
2023/03/05 03:47:00;;;;;;;2.63;1.08;;;;;;;3.81;100.00;101364.41;4988310;28;20044;-83
2023/03/05 03:49:27;;;;;;;2.22;1.30;;;;;;;3.74;100.00;101365.28;4933534;29;20421;-83
2023/03/05 03:51:54;;;;;;;4.40;1.23;;;;;;;3.76;100.00;101358.38;4922237;28;20052;-83
2023/03/05 03:54:21;;;;;;;4.65;1.52;;;;;;;3.96;100.00;101382.53;4934215;29;20058;-83
2023/03/05 03:56:48;;;;;;;3.08;1.30;;;;;;;3.76;100.00;101363.53;4932967;29;20478;-84
2023/03/05 03:59:15;;;;;;;3.97;1.30;;;;;;;3.77;100.00;101355.78;4942879;29;20055;-83
2023/03/05 04:01:42;;;;;;;2.60;1.13;;;;;;;4.03;100.00;101391.19;4930311;28;20054;-83
2023/03/05 04:04:11;;;;;;;2.35;1.20;;;;;;;3.99;100.00;101372.19;4936584;29;20477;-83
2023/03/05 04:06:38;;;;;;;4.35;1.13;;;;;;;4.09;100.00;101393.78;4933862;29;20062;-82
2023/03/05 04:09:07;;;;;;;3.35;1.20;;;;;;;4.07;100.00;101385.16;4932449;28;20535;-83
2023/03/05 04:11:35;;;;;;;3.47;1.40;;;;;;;3.90;100.00;101348.00;4931394;29;20134;-83
2023/03/05 04:14:03;;;;;;;2.60;1.20;;;;;;;3.89;100.00;101349.72;4932366;29;20056;-83
2023/03/05 04:16:30;;;;;;;3.05;1.10;;;;;;;3.62;100.00;101293.59;4933912;29;20056;-83
2023/03/05 04:18:57;;;;;;;3.47;1.45;;;;;;;4.06;100.00;101372.19;4931619;28;20059;-83
2023/03/05 04:21:23;;;;;;;4.05;1.30;;;;;;;4.17;100.00;101367.84;4941329;29;20055;-83
2023/03/05 04:23:50;;;;;;;3.15;1.15;;;;;;;3.69;100.00;101289.31;4950683;29;20050;-82
2023/03/05 04:26:17;;;;;;;1.85;1.10;;;;;;;3.92;100.00;101334.19;4941491;29;20043;-82
2023/03/05 04:28:43;;;;;;;1.50;1.10;;;;;;;3.95;100.00;101330.75;4943570;29;20059;-82
2023/03/05 04:31:10;;;;;;;3.17;1.27;;;;;;;3.94;100.00;101316.91;4927291;28;20474;-82
2023/03/05 04:33:37;;;;;;;2.47;1.10;;;;;;;3.77;100.00;101284.97;4933050;29;20078;-82
2023/03/05 04:36:04;;;;;;;3.67;1.40;;;;;;;3.87;100.00;101291.00;4934524;29;20052;-82
2023/03/05 04:38:31;;;;;;;4.22;1.20;;;;;;;3.95;100.00;101313.47;4944021;28;20043;-82
2023/03/05 04:40:57;;;;;;;1.75;1.10;;;;;;;3.93;100.00;101314.31;4923931;29;20048;-82
2023/03/05 04:43:24;;;;;;;2.60;1.30;;;;;;;3.64;100.00;101260.81;4932173;29;20112;-83
2023/03/05 04:45:51;;;;;;;2.13;1.20;;;;;;;4.05;100.00;101324.66;4985618;28;20049;-83
2023/03/05 04:48:17;;;;;;;2.05;1.20;;;;;;;3.84;100.00;101286.69;4934559;28;20052;-83
2023/03/05 04:50:44;;;;;;;7.18;1.55;;;;;;;3.98;100.00;101309.97;4934011;28;20055;-83
2023/03/05 04:53:11;;;;;;;2.58;1.10;;;;;;;3.84;100.00;101302.22;4931638;28;20063;-83
2023/03/05 04:55:38;;;;;;;4.43;1.20;;;;;;;3.88;100.00;101306.56;4932069;29;20410;-83
2023/03/05 04:58:04;;;;;;;2.05;1.10;;;;;;;3.57;100.00;101246.13;4933522;29;20056;-83
2023/03/05 05:00:31;;;;;;;3.38;1.30;;;;;;;3.83;100.00;101273.75;4942779;29;20525;-83
2023/03/05 05:02:58;;;;;;;1.77;1.00;;;;;;;3.59;100.00;101234.94;4931625;29;20101;-82
2023/03/05 05:05:26;;;;;;;2.00;1.10;;;;;;;4.09;100.00;101315.16;4943387;28;20051;-83
2023/03/05 05:07:55;;;;;;;2.75;1.23;;;;;;;4.08;100.00;101308.25;4939243;28;20052;-82
2023/03/05 05:10:24;;;;;;;3.88;1.30;;;;;;;3.85;100.00;101264.25;4930022;29;20055;-84
2023/03/05 05:12:50;;;;;;;1.42;1.00;;;;;;;3.56;100.00;101219.38;4931399;28;20109;-83
2023/03/05 05:15:17;;;;;;;2.65;1.40;;;;;;;3.89;100.00;101269.41;4932187;28;20532;-82
2023/03/05 05:17:44;;;;;;;3.03;1.25;;;;;;;4.00;100.00;101259.03;4935541;29;20052;-83
2023/03/05 05:20:13;;;;;;;1.45;1.00;;;;;;;4.27;100.00;101291.81;4928840;29;20518;-83
2023/03/05 05:22:40;;;;;;;3.28;1.30;;;;;;;4.18;100.00;101279.72;4931284;29;20047;-83
2023/03/05 05:25:09;;;;;;;4.70;1.40;;;;;;;4.25;100.00;101284.88;4932530;29;20051;-83
2023/03/05 05:27:37;;;;;;;3.47;1.30;;;;;;;4.32;100.00;101269.31;4948720;29;20055;-83
2023/03/05 05:30:05;;;;;;;4.10;1.08;;;;;;;4.30;100.00;101260.69;4939712;29;20052;-83
2023/03/05 05:32:32;;;;;;;2.38;1.20;;;;;;;4.47;100.00;101276.16;4932755;29;20054;-83
2023/03/05 05:34:59;;;;;;;2.13;1.10;;;;;;;4.31;100.00;101272.78;4931774;28;20093;-83
2023/03/05 05:37:26;;;;;;;2.70;1.20;;;;;;;4.31;100.00;101253.78;4931570;29;20047;-83
2023/03/05 05:39:53;;;;;;;1.88;1.13;;;;;;;4.25;100.00;101261.56;4927597;28;20623;-84
2023/03/05 05:42:22;;;;;;;2.60;1.10;;;;;;;4.21;100.00;101236.50;4926013;28;20062;-84
2023/03/05 05:44:49;;;;;;;2.03;1.13;;;;;;;4.40;100.00;101266.69;4944381;28;20058;-83
2023/03/05 05:47:17;;;;;;;2.65;1.20;;;;;;;4.46;100.00;101271.88;4988062;28;20047;-83
2023/03/05 05:49:43;;;;;;;1.58;1.02;;;;;;;4.21;100.00;101232.19;4946810;29;20058;-84
2023/03/05 05:52:10;;;;;;;3.17;1.05;;;;;;;4.29;100.00;101247.72;4931390;29;20394;-83
2023/03/05 05:54:38;;;;;;;2.78;1.05;;;;;;;4.18;100.00;101219.25;4931056;29;20047;-84
2023/03/05 05:57:05;;;;;;;3.35;1.35;;;;;;;4.29;100.00;101234.78;4931099;29;20056;-84
2023/03/05 05:59:32;;;;;;;2.17;1.20;;;;;;;4.31;100.00;101227.84;4930512;29;20047;-83
2023/03/05 06:01:59;;;;;;;1.65;1.02;;;;;;;4.17;100.00;101207.16;4918087;29;20060;-83
2023/03/05 06:04:25;;;;;;;1.92;1.13;;;;;;;4.34;100.00;101227.84;4934374;29;20109;-83
2023/03/05 06:06:52;;;;;;;1.77;1.10;;;;;;;4.29;100.00;101211.44;4935451;29;20056;-84
2023/03/05 06:09:19;;;;;;;1.42;1.08;;;;;;;4.55;100.00;101240.72;4939149;28;20054;-84
2023/03/05 06:11:46;;;;;;;2.92;1.20;;;;;;;4.33;100.00;101229.53;4939277;29;20059;-84
2023/03/05 06:14:13;;;;;;;1.35;1.10;;;;;;;4.26;100.00;101214.88;4941690;28;20056;-84
2023/03/05 06:16:40;;;;;;;2.35;1.10;;;;;;;4.14;100.00;101196.78;4943514;28;20051;-84
2023/03/05 06:19:10;;;;;;;2.13;1.27;;;;;;;4.23;100.00;101206.25;4941186;29;20051;-83
2023/03/05 06:21:37;;;;;;;2.75;1.05;;;;;;;3.99;100.00;101171.81;4938088;28;20056;-84
2023/03/05 06:24:05;;;;;;;1.52;1.02;;;;;;;4.25;100.00;101217.47;4933964;29;20051;-84
2023/03/05 06:26:32;;;;;;;1.92;1.10;;;;;;;4.25;100.00;101209.72;4933657;29;20048;-84
2023/03/05 06:28:58;;;;;;;2.63;1.20;;;;;;;4.05;100.00;101205.47;4941544;28;20062;-84
2023/03/05 06:31:27;;;;;;;2.92;1.30;;;;;;;3.96;100.00;101203.75;4938914;29;20126;-83
2023/03/05 06:33:56;;;;;;;3.45;1.40;;;;;;;4.04;100.00;101223.59;4935772;29;20051;-84
2023/03/05 06:36:24;;;;;;;4.00;1.58;;;;;;;3.94;100.00;101213.25;4938013;29;20062;-83
2023/03/05 06:38:53;;;;;;;6.10;1.58;;;;;;;3.71;100.00;101171.03;4939756;29;20052;-83
2023/03/05 06:41:23;;;;;;;3.72;1.60;;;;;;;3.89;100.00;101215.00;4936590;28;20052;-84
2023/03/05 06:43:50;;;;;;;7.00;1.75;;;;;;;3.72;100.00;101183.97;4936382;29;20143;-83
2023/03/05 06:46:38;;;;;;;6.30;1.88;;;;;;;3.88;100.00;101212.41;4942962;29;20067;-82
2023/03/05 06:49:05;;;;;;;4.68;1.85;;;;;;;3.70;100.00;101187.41;4941809;29;20054;-83
2023/03/05 06:51:35;;;;;;;4.10;1.70;;;;;;;3.77;100.00;101204.66;4938019;29;20054;-83
2023/03/05 06:54:10;;;;;;;4.25;1.58;;;;;;;3.82;100.00;101202.94;4940818;29;20055;-83
2023/03/05 06:56:39;;;;;;;4.32;1.70;;;;;;;3.88;100.00;101205.53;4940769;28;20143;-84
2023/03/05 06:59:06;;;;;;;4.75;1.85;;;;;;;3.82;100.00;101181.34;4942059;29;20055;-83
2023/03/05 07:01:33;;;;;;;4.82;1.90;;;;;;;3.96;100.00;101205.50;4953505;28;20051;-83
2023/03/05 07:04:01;;;;;;;5.32;1.75;;;;;;;3.91;100.00;101183.91;4945789;28;20052;-83
2023/03/05 07:06:31;;;;;;;3.38;1.50;;;;;;;4.03;100.00;101196.81;4941891;28;20060;-83
2023/03/05 07:09:00;;;;;;;3.65;1.50;;;;;;;4.09;100.00;101196.81;4942065;28;20058;-83
2023/03/05 07:11:27;;;;;;;4.32;1.60;;;;;;;3.78;100.00;101144.25;4925462;29;20513;-83
2023/03/05 07:13:54;;;;;;;3.38;1.40;;;;;;;3.80;100.00;101139.91;4943181;28;20058;-83
2023/03/05 07:16:26;;;;;;;3.45;1.40;;;;;;;3.85;100.00;101150.25;4943275;28;20056;-83
2023/03/05 07:18:54;;;;;;;2.75;1.23;;;;;;;3.97;100.00;101174.41;4942235;29;20463;-83
2023/03/05 07:21:27;;;;;;;2.67;1.23;;;;;;;4.17;100.00;101192.44;4938821;29;20477;-83
2023/03/05 07:23:55;;;;;;;2.00;1.20;;;;;;;4.09;100.00;101159.66;4946217;28;20051;-83
2023/03/05 07:26:23;;;;;;;2.70;1.50;;;;;;;3.82;100.00;101121.78;4944607;29;20059;-83
2023/03/05 07:28:50;;;;;;;4.63;1.40;;;;;;;4.33;100.00;101182.88;4936926;29;20055;-84
2023/03/05 07:31:21;;;;;;;2.63;1.30;;;;;;;3.92;100.00;101108.78;4934702;29;20056;-84
2023/03/05 07:33:49;;;;;;;2.40;1.30;;;;;;;4.34;100.00;101163.03;4945660;28;20055;-84
2023/03/05 07:36:16;;;;;;;2.33;1.05;;;;;;;4.16;100.00;101115.59;4938516;29;20504;-84
2023/03/05 07:38:43;;;;;;;2.30;1.10;;;;;;;4.23;100.00;101116.38;4940447;29;20070;-84
2023/03/05 07:41:13;;;;;;;3.10;1.25;;;;;;;4.68;100.00;101179.25;4938509;29;20063;-84
2023/03/05 07:43:40;;;;;;;2.60;1.23;;;;;;;4.55;100.00;101142.16;4945492;29;20047;-86
2023/03/05 07:46:10;;;;;;;2.60;1.15;;;;;;;4.50;100.00;101132.69;4941326;28;20066;-86
2023/03/05 07:48:37;;;;;;;4.88;1.27;;;;;;;4.66;100.00;101155.06;4932876;29;20056;-86
2023/03/05 07:51:17;;;;;;;3.50;1.55;;;;;;;4.50;100.00;101143.91;4923552;28;20052;-86
2023/03/05 07:53:50;;;;;;;2.97;1.20;;;;;;;4.43;100.00;101128.41;4932382;28;20055;-85
2023/03/05 07:56:25;;;;;;;2.58;1.23;;;;;;;4.44;100.00;101120.59;4932587;29;20062;-85
2023/03/05 07:58:52;;;;;;;1.73;1.13;;;;;;;4.46;100.00;101087.78;4930165;29;20048;-85
2023/03/05 08:01:27;;;;;;;1.67;1.10;;;;;;;4.98;100.00;101168.69;4934175;29;20059;-86
2023/03/05 08:04:01;;;;;;;1.65;1.00;;;;;;;4.96;100.00;101127.16;4934900;29;20573;-86
2023/03/05 08:06:41;;;;;;;2.08;1.00;;;;;;;5.29;100.00;101179.66;4933107;28;20079;-85
2023/03/05 08:09:11;;;;;;;1.30;1.00;;;;;;;4.73;100.00;101081.50;4933431;29;20050;-85
2023/03/05 08:11:39;;;;;;;2.75;0.98;;;;;;;5.23;100.00;101149.41;4938227;28;20077;-84
2023/03/05 08:14:09;;;;;;;2.75;1.00;;;;;;;5.39;100.00;101160.53;4942235;28;20058;-85
2023/03/05 08:16:40;;;;;;;2.45;1.00;;;;;;;5.40;100.00;101167.47;4950298;28;20433;-85
2023/03/05 08:19:10;;;;;;;1.45;1.00;;;;;;;5.29;100.00;101118.22;4941574;28;20051;-83
2023/03/05 08:21:42;;;;;;;2.70;1.30;;;;;;;5.01;100.00;101083.00;4942136;28;20062;-88
2023/03/05 08:24:15;;;;;;;2.08;1.10;;;;;;;5.23;100.00;101097.50;4943377;29;20073;-88
2023/03/05 08:26:42;;;;;;;1.38;1.00;;;;;;;5.18;100.00;101078.50;4938865;28;20378;-87
2023/03/05 08:29:09;;;;;;;2.25;1.10;;;;;;;5.35;100.00;101080.06;4939279;29;20048;-85
2023/03/05 08:31:37;;;;;;;1.67;1.00;;;;;;;6.02;100.00;101149.50;4935160;28;20066;-85
2023/03/05 08:34:05;;;;;;;1.67;0.90;;;;;;;5.69;100.00;101117.78;4937039;28;20078;-87
2023/03/05 08:36:35;;;;;;;1.35;1.00;;;;;;;5.09;100.00;101022.34;4929377;28;20410;-88
2023/03/05 08:39:02;;;;;;;1.38;1.00;;;;;;;5.73;100.00;101092.63;4931370;29;20051;-87
2023/03/05 08:41:29;;;;;;;2.15;1.27;;;;;;;5.85;100.00;101097.69;4941650;29;20051;-85
2023/03/05 08:43:56;;;;;;;1.10;1.00;;;;;;;6.16;100.00;101131.13;4940103;28;20052;-86
2023/03/05 08:46:23;;;;;;;1.40;1.00;;;;;;;5.98;100.00;101098.41;4940884;28;20378;-87
2023/03/05 08:48:57;;;;;;;1.38;1.00;;;;;;;5.81;100.00;101090.81;4936110;28;20058;-87
2023/03/05 08:51:25;;;;;;;1.70;0.98;;;;;;;5.88;100.00;101083.81;4927294;29;20109;-86
2023/03/05 08:53:54;;;;;;;2.75;1.00;;;;;;;6.15;100.00;101105.16;4945012;29;20059;-86
2023/03/05 08:56:21;;;;;;;2.85;1.10;;;;;;;5.80;100.00;101094.28;4930769;28;20634;-86
2023/03/05 08:58:48;;;;;;;1.38;1.00;;;;;;;5.86;100.00;101102.00;4941169;28;20059;-86
2023/03/05 09:01:14;;;;;;;1.35;0.90;;;;;;;5.80;100.00;101091.69;4930687;28;20063;-85
2023/03/05 09:03:44;;;;;;;1.80;1.30;;;;;;;6.14;100.00;101121.63;4937175;29;20506;-86
2023/03/05 09:06:11;;;;;;;2.60;1.10;;;;;;;6.08;100.00;101106.97;4939323;29;20059;-86
2023/03/05 09:08:38;;;;;;;1.63;0.90;;;;;;;5.99;100.00;101123.53;4931421;28;20047;-86
2023/03/05 09:11:07;;;;;;;1.92;1.10;;;;;;;5.80;100.00;101111.63;4931550;29;20085;-86
2023/03/05 09:13:35;;;;;;;1.70;0.93;;;;;;;5.95;100.00;101128.75;4938931;28;20580;-86
2023/03/05 09:16:09;;;;;;;2.72;1.13;;;;;;;5.91;100.00;101133.13;4931025;29;20056;-87
2023/03/05 09:18:38;;;;;;;1.75;1.10;;;;;;;5.70;100.00;101116.94;4936244;28;20122;-87
2023/03/05 09:21:07;;;;;;;2.35;1.10;;;;;;;5.43;100.00;101066.13;4936102;28;20052;-87
2023/03/05 09:23:34;;;;;;;2.38;1.10;;;;;;;5.78;100.00;101097.78;4940096;28;20055;-86
2023/03/05 09:26:03;;;;;;;2.85;1.08;;;;;;;5.54;100.00;101055.59;4935038;28;20051;-86
2023/03/05 09:28:30;;;;;;;3.45;1.17;;;;;;;5.53;100.00;101068.66;4940860;28;20110;-86
2023/03/05 09:31:00;;;;;;;2.00;1.10;;;;;;;5.81;100.00;101126.34;4931901;29;20640;-86
2023/03/05 09:33:34;;;;;;;3.13;1.30;;;;;;;5.50;100.00;101085.09;4932747;28;20059;-86
2023/03/05 09:36:20;;;;;;;3.15;1.30;;;;;;;4.63;100.00;100950.16;4936606;29;20515;-87
2023/03/05 09:38:48;;;;;;;2.13;1.13;;;;;;;5.37;100.00;101057.56;4924862;28;20450;-87
2023/03/05 09:41:20;;;;;;;1.73;1.10;;;;;;;5.72;100.00;101137.69;4935546;29;20051;-88
2023/03/05 09:44:00;;;;;;;2.42;1.10;;;;;;;5.59;100.00;101138.69;4943257;28;20055;-87
2023/03/05 09:46:47;;;;;;;1.65;1.10;;;;;;;5.44;100.00;101142.31;4931362;28;20478;-87
2023/03/05 09:49:23;;;;;;;3.65;1.15;;;;;;;4.78;100.00;101078.00;4942188;28;20094;-87
2023/03/05 09:52:00;;;;;;;3.60;1.20;;;;;;;4.97;100.00;101102.06;4929719;29;20148;-87
2023/03/05 09:54:36;;;;;;;2.55;1.17;;;;;;;4.85;100.00;101057.22;4936648;29;20048;-86
2023/03/05 09:57:13;;;;;;;1.50;1.10;;;;;;;5.30;100.00;101139.84;4927675;29;20118;-87
2023/03/05 09:59:48;;;;;;;4.40;1.92;;;;;;;4.80;100.00;101058.97;4930665;29;20374;-85
2023/03/05 10:02:33;;;;;;;4.88;1.65;;;;;;;5.33;100.00;101125.09;4930580;29;20059;-85
2023/03/05 10:05:19;;;;;;;3.08;1.25;;;;;;;5.24;100.00;101087.97;4936538;28;20055;-85
2023/03/05 10:07:54;;;;;;;1.48;1.00;;;;;;;5.54;100.00;101120.53;4931709;28;20059;-86
2023/03/05 10:11:04;;;;;;;2.88;1.23;;;;;;;5.20;100.00;101058.59;4926680;28;20049;-85
2023/03/05 10:13:42;;;;;;;3.72;1.23;;;;;;;5.32;100.00;101062.78;4940527;28;20052;-86
2023/03/05 10:16:24;;;;;;;2.55;1.20;;;;;;;5.68;100.00;101116.09;4934356;28;20044;-85
2023/03/05 10:19:08;;;;;;;2.97;1.10;;;;;;;5.66;100.00;101094.44;4943986;28;20051;-86
2023/03/05 10:21:41;;;;;;;2.53;1.25;;;;;;;5.61;100.00;101087.56;4942517;29;20047;-85
2023/03/05 10:24:16;;;;;;;;;;;;;;;5.82;100.00;101115.06;4935944;28;20406;-85
2023/03/05 10:27:01;;;;;;;8.13;2.22;;;;;;;5.74;100.00;101111.66;4936530;29;19922;-85
2023/03/05 10:30:02;;;;;;;3.35;1.30;;;;;;;5.81;100.00;101113.34;4945312;28;20398;-85
2023/03/05 10:32:43;;;;;;;2.85;1.17;;;;;;;5.79;100.00;101104.69;4947072;29;20056;-85
2023/03/05 10:35:18;;;;;;;4.35;1.15;;;;;;;5.42;100.00;101040.16;4925125;28;20481;-85
2023/03/05 10:38:21;;;;;;;;;;;;;;;6.04;100.00;101110.50;4935639;28;20127;-84
2023/03/05 10:40:51;;;;;;;6.15;1.88;;;;;;;6.18;100.00;101103.38;4909786;28;20033;-84
2023/03/05 10:43:42;;;;;;;5.90;1.77;;;;;;;6.39;100.00;101096.13;4927842;29;20082;-84
2023/03/05 10:46:15;;;;;;;4.35;1.38;;;;;;;6.29;100.00;101091.97;4941125;28;20062;-84
2023/03/05 10:48:51;;;;;;;2.72;1.10;;;;;;;6.36;100.00;101096.19;4942345;29;20048;-84
2023/03/05 10:51:45;;;;;;;3.67;1.02;;;;;;;6.17;100.00;101061.78;4938046;28;20063;-85
2023/03/05 10:54:24;;;;;;;2.70;1.13;;;;;;;6.35;100.00;101097.06;4943937;28;20062;-82
2023/03/05 10:57:18;;;;;;;3.50;1.10;;;;;;;6.50;100.00;101083.84;4936701;28;20090;-85
2023/03/05 11:00:21;;;;;;;4.95;1.20;;;;;;;6.65;100.00;101087.94;4935889;29;20059;-85
2023/03/05 11:03:14;;;;;;;;;;;;;;;6.83;100.00;101081.56;4930792;29;20047;-85
2023/03/05 11:05:50;;;;;;;1.77;1.00;;;;;;;6.99;100.00;101074.38;4936774;28;20030;-84
2023/03/05 11:08:36;;;;;;;3.95;1.00;;;;;;;6.60;100.00;101001.28;4961593;28;20051;-85
2023/03/05 11:11:15;;;;;;;2.08;1.05;;;;;;;6.99;100.00;101070.03;4926289;28;20626;-85
2023/03/05 11:13:58;;;;;;;2.30;1.00;;;;;;;6.98;100.00;101065.72;4923216;28;20048;-85
2023/03/05 11:16:44;;;;;;;4.13;1.40;;;;;;;6.82;100.00;101077.28;4932447;28;20663;-84
2023/03/05 11:19:23;;;;;;;2.10;1.10;;;;;;;6.70;100.00;101075.72;4936392;29;20084;-84
2023/03/05 11:22:09;;;;;;;4.15;1.27;;;;;;;6.74;100.00;101071.31;4937362;28;20409;-85
2023/03/05 11:24:36;;;;;;;4.78;1.25;;;;;;;6.83;100.00;101061.63;4945074;28;20386;-85
2023/03/05 11:27:23;;;;;;;5.70;1.73;;;;;;;6.61;100.00;101029.03;4940270;29;20105;-85
2023/03/05 11:29:50;;;;;;;8.82;2.92;;;;;;;6.58;100.00;101039.50;4940107;29;20106;-83
2023/03/05 11:32:23;;;;;;;7.88;1.73;;;;;;;6.64;100.00;101022.03;4941635;28;20051;-85
2023/03/05 11:34:51;;;;;;;2.80;1.20;;;;;;;6.98;100.00;101059.66;4951603;28;20077;-85
2023/03/05 11:37:24;;;;;;;6.63;1.52;;;;;;;6.89;100.00;101057.19;4941106;29;20070;-86
2023/03/05 11:40:13;;;;;;;;;;;;;;;7.30;100.00;101066.03;4949434;28;20051;-86